Academia, Pennsylvania
Current Conditions -  °F | °C
As of 9:53 AM on Tuesday 21 Oct 2014 (Local Time) from KUNV Reporting Station
Overcast Overcast  
Wind Chill: 50°   Ceiling: 4800
Heat Index: 50°   Visibility: 8mi
Dew Point: 48°   Wind: 5mph
Humidity: 94%   Direction: 260°W
Pressure: 29.86"   Gusts: NA
Location:  40.4991°N, 77.4687°W
Report Text: KUNV 211353Z 26004KT 8SM BKN048 OVC060 10/09 A2986
Loading
Personal Weather Stations






























Interactive Weather Map New forecast layout! Learn more

10-Day Weather Forecast

Advertisements
Track Severe Weather on mobile